createdAt,value
2018-01-14T00:01:49.693Z,18.40
2018-01-14T00:04:17.457Z,17.92
2018-01-14T00:06:45.000Z,17.87
2018-01-14T00:09:12.552Z,17.50
2018-01-14T00:11:40.116Z,17.90
2018-01-14T00:14:07.683Z,16.33
2018-01-14T00:16:36.018Z,19.43
2018-01-14T00:19:03.727Z,18.98
2018-01-14T00:21:31.256Z,17.57
2018-01-14T00:23:58.786Z,17.53
2018-01-14T00:26:27.101Z,17.17
2018-01-14T00:28:54.629Z,18.17
2018-01-14T00:31:22.151Z,17.40
2018-01-14T00:33:49.678Z,18.27
2018-01-14T00:36:18.093Z,19.20
2018-01-14T00:38:45.616Z,19.03
2018-01-14T00:41:13.155Z,18.03
2018-01-14T00:43:40.711Z,18.33
2018-01-14T00:46:08.426Z,18.10
2018-01-14T00:48:36.946Z,19.60
2018-01-14T00:51:04.512Z,18.27
2018-01-14T00:53:32.068Z,18.83
2018-01-14T00:56:00.324Z,18.90
2018-01-14T00:58:27.851Z,18.20
2018-01-14T01:00:55.395Z,18.03
2018-01-14T01:03:22.940Z,17.93
2018-01-14T01:05:50.452Z,18.07
2018-01-14T01:08:17.993Z,18.47
2018-01-14T01:10:45.520Z,17.70
2018-01-14T01:13:13.075Z,18.70
2018-01-14T01:15:40.853Z,17.80
2018-01-14T01:18:08.501Z,18.25
2018-01-14T01:20:36.322Z,17.50
2018-01-14T01:23:03.879Z,17.63
2018-01-14T01:25:31.387Z,17.37
2018-01-14T01:28:00.517Z,17.05
2018-01-14T01:30:28.164Z,16.87
2018-01-14T01:32:55.713Z,18.97
2018-01-14T01:35:23.232Z,17.43
2018-01-14T01:37:50.795Z,16.25
2018-01-14T01:40:18.326Z,17.10
2018-01-14T01:42:46.012Z,18.57
2018-01-14T01:45:13.543Z,16.33
2018-01-14T01:47:41.072Z,17.75
2018-01-14T01:50:08.583Z,16.23
2018-01-14T01:52:36.648Z,17.37
2018-01-14T01:55:04.185Z,16.62
2018-01-14T01:57:31.734Z,16.63
2018-01-14T02:00:00.987Z,17.90
2018-01-14T02:02:28.499Z,16.93
2018-01-14T02:04:56.063Z,16.60
2018-01-14T02:07:23.884Z,16.63
2018-01-14T02:09:51.539Z,16.07
2018-01-14T02:12:19.058Z,16.30
2018-01-14T02:14:46.599Z,16.80
2018-01-14T02:17:14.123Z,16.23
2018-01-14T02:19:42.465Z,16.37
2018-01-14T02:22:10.815Z,15.50
2018-01-14T02:24:38.387Z,15.80
2018-01-14T02:27:06.680Z,17.02
2018-01-14T02:29:34.228Z,17.20
2018-01-14T02:32:01.743Z,15.87
2018-01-14T02:34:30.048Z,15.70
2018-01-14T02:36:57.605Z,17.57
2018-01-14T02:39:25.245Z,15.63
2018-01-14T02:41:52.776Z,16.33
2018-01-14T02:44:20.321Z,17.70
2018-01-14T02:46:48.618Z,15.53
2018-01-14T02:49:16.202Z,17.27
2018-01-14T02:51:43.792Z,16.90
2018-01-14T02:54:11.340Z,16.33
2018-01-14T02:56:38.896Z,16.57
2018-01-14T02:59:06.468Z,17.02
2018-01-14T03:01:34.049Z,17.33
2018-01-14T03:04:02.422Z,17.87
2018-01-14T03:06:29.968Z,17.10
2018-01-14T03:08:57.505Z,16.93
2018-01-14T03:11:25.054Z,16.70
2018-01-14T03:13:52.601Z,17.13
2018-01-14T03:16:20.763Z,15.70
2018-01-14T03:18:48.297Z,15.20
2018-01-14T03:21:16.159Z,16.90
2018-01-14T03:23:43.689Z,15.77
2018-01-14T03:26:11.245Z,15.60
2018-01-14T03:28:38.771Z,15.80
2018-01-14T03:31:06.538Z,16.87
2018-01-14T03:33:34.131Z,16.33
2018-01-14T03:36:01.978Z,15.65
2018-01-14T03:38:29.520Z,16.00
2018-01-14T03:40:57.127Z,15.00
2018-01-14T03:43:25.768Z,14.30
2018-01-14T03:45:53.341Z,14.27
2018-01-14T03:48:20.898Z,17.50
2018-01-14T03:50:48.430Z,15.90
2018-01-14T03:53:15.967Z,15.17
2018-01-14T03:55:43.496Z,16.25
2018-01-14T03:58:11.093Z,15.10
2018-01-14T04:00:38.646Z,15.52
2018-01-14T04:03:06.820Z,14.90
2018-01-14T04:05:35.072Z,16.27
2018-01-14T04:08:03.685Z,16.80
2018-01-14T04:10:31.218Z,15.40
2018-01-14T04:12:58.750Z,16.73
2018-01-14T04:15:26.312Z,15.03
2018-01-14T04:17:53.871Z,13.70
2018-01-14T04:20:21.409Z,15.93
2018-01-14T04:22:48.960Z,15.90
2018-01-14T04:25:16.611Z,14.67
2018-01-14T04:27:44.932Z,16.07
2018-01-14T04:30:13.279Z,15.48
2018-01-14T04:32:40.801Z,15.37
2018-01-14T04:35:08.381Z,15.40
2018-01-14T04:37:36.719Z,16.27
2018-01-14T04:40:04.281Z,15.00
2018-01-14T04:42:32.598Z,15.40
2018-01-14T04:45:00.250Z,17.00
2018-01-14T04:47:27.773Z,17.23
2018-01-14T04:49:55.318Z,15.23
2018-01-14T04:52:22.848Z,18.23
2018-01-14T04:54:50.395Z,15.90
2018-01-14T04:57:18.711Z,17.83
2018-01-14T04:59:46.316Z,15.77
2018-01-14T05:02:14.609Z,15.73
2018-01-14T05:04:42.168Z,15.80
2018-01-14T05:07:09.721Z,17.30
2018-01-14T05:09:37.241Z,15.23
2018-01-14T05:12:04.815Z,17.97
2018-01-14T05:14:32.337Z,18.43
2018-01-14T05:16:59.918Z,17.10
2018-01-14T05:19:27.466Z,15.73
2018-01-14T05:21:55.028Z,16.52
2018-01-14T05:24:22.573Z,16.93
2018-01-14T05:26:50.921Z,17.98
2018-01-14T05:29:18.448Z,17.50
2018-01-14T05:31:46.309Z,18.57
2018-01-14T05:34:13.873Z,17.47
2018-01-14T05:36:42.226Z,17.33
2018-01-14T05:39:09.735Z,17.80
2018-01-14T05:41:37.261Z,19.00
2018-01-14T05:44:06.297Z,18.62
2018-01-14T05:46:34.595Z,18.83
2018-01-14T05:49:02.137Z,18.90
2018-01-14T05:51:29.664Z,19.93
2018-01-14T05:53:57.206Z,17.47
2018-01-14T05:56:24.750Z,19.35
2018-01-14T05:58:52.356Z,18.77
2018-01-14T06:01:19.880Z,17.60
2018-01-14T06:03:47.452Z,17.97
2018-01-14T06:06:14.985Z,18.25
2018-01-14T06:08:42.528Z,19.27
2018-01-14T06:11:10.134Z,18.00
2018-01-14T06:13:37.673Z,20.17
2018-01-14T06:16:07.294Z,18.75
2018-01-14T06:18:34.817Z,18.97
2018-01-14T06:21:02.366Z,20.75
2018-01-14T06:23:29.893Z,18.47
2018-01-14T06:25:57.433Z,18.95
2018-01-14T06:28:25.833Z,17.80
2018-01-14T06:30:53.386Z,18.63
2018-01-14T06:33:20.917Z,19.40
2018-01-14T06:35:48.466Z,19.40
2018-01-14T06:38:16.038Z,19.33
2018-01-14T06:40:43.600Z,19.50
2018-01-14T06:43:11.133Z,18.40
2018-01-14T06:45:38.676Z,18.63
2018-01-14T06:48:07.696Z,18.98
2018-01-14T06:50:35.292Z,19.17
2018-01-14T06:53:02.817Z,17.50
2018-01-14T06:55:30.360Z,18.90
2018-01-14T06:57:57.902Z,18.57
2018-01-14T07:00:31.376Z,19.87
2018-01-14T07:02:58.922Z,20.33
2018-01-14T07:05:26.455Z,18.90
2018-01-14T07:07:54.118Z,21.23
2018-01-14T07:10:21.855Z,18.93
2018-01-14T07:12:49.433Z,19.27
2018-01-14T07:15:16.972Z,20.77
2018-01-14T07:17:44.529Z,21.00
2018-01-14T07:20:12.057Z,20.93
2018-01-14T07:22:39.617Z,18.67
2018-01-14T07:25:08.475Z,18.83
2018-01-14T07:27:36.027Z,20.43
2018-01-14T07:30:03.588Z,19.07
2018-01-14T07:32:31.153Z,20.83
2018-01-14T07:34:59.465Z,20.00
2018-01-14T07:37:26.996Z,19.97
2018-01-14T07:39:54.538Z,20.30
2018-01-14T07:42:22.095Z,18.97
2018-01-14T07:44:49.717Z,21.23
2018-01-14T07:47:17.353Z,19.97
2018-01-14T07:49:44.960Z,19.50
2018-01-14T07:52:12.484Z,19.27
2018-01-14T07:54:40.041Z,20.77
2018-01-14T07:57:08.977Z,19.02
2018-01-14T07:59:36.537Z,20.73
2018-01-14T08:02:04.077Z,20.27
2018-01-14T08:04:31.633Z,19.20
2018-01-14T08:06:59.161Z,20.43
2018-01-14T08:09:26.701Z,19.50
2018-01-14T08:11:54.241Z,20.07
2018-01-14T08:14:21.764Z,19.70
2018-01-14T08:16:50.073Z,19.03
2018-01-14T08:19:17.647Z,19.60
2018-01-14T08:21:45.196Z,18.37
2018-01-14T08:24:12.721Z,19.63
2018-01-14T08:26:40.300Z,20.70
2018-01-14T08:29:09.417Z,20.50
2018-01-14T08:31:36.955Z,18.63
2018-01-14T08:34:04.521Z,18.20
2018-01-14T08:36:32.122Z,19.50
2018-01-14T08:38:59.742Z,21.87
2018-01-14T08:41:27.300Z,20.87
2018-01-14T08:43:55.594Z,19.35
2018-01-14T08:46:23.193Z,19.47
2018-01-14T08:48:50.741Z,21.03
2018-01-14T08:51:18.283Z,19.73
2018-01-14T08:53:45.830Z,20.20
2018-01-14T08:56:13.873Z,19.80
2018-01-14T08:58:41.424Z,18.17
2018-01-14T09:01:10.143Z,19.67
2018-01-14T09:03:37.701Z,17.20
2018-01-14T09:06:05.943Z,18.20
2018-01-14T09:08:33.493Z,24.50
2018-01-14T09:11:01.216Z,19.93
2018-01-14T09:13:29.521Z,17.70
2018-01-14T09:15:57.041Z,18.80
2018-01-14T09:18:24.587Z,17.80
2018-01-14T09:20:52.136Z,18.13
2018-01-14T09:23:19.756Z,19.13
2018-01-14T09:25:48.065Z,18.30
2018-01-14T09:28:15.592Z,17.07
2018-01-14T09:31:09.996Z,17.90
2018-01-14T09:33:37.541Z,17.77
2018-01-14T09:36:05.082Z,17.03
2018-01-14T09:38:32.603Z,17.60
2018-01-14T09:41:00.162Z,17.13
2018-01-14T09:43:27.693Z,18.20
2018-01-14T09:45:55.224Z,17.63
2018-01-14T09:48:22.785Z,17.00
2018-01-14T09:50:50.437Z,16.90
2018-01-14T09:53:18.025Z,17.00
2018-01-14T09:55:45.636Z,15.83
2018-01-14T09:58:13.220Z,16.70
2018-01-14T10:00:41.524Z,15.53
2018-01-14T10:03:09.044Z,15.23
2018-01-14T10:05:36.589Z,15.50
2018-01-14T10:08:04.217Z,15.30
2018-01-14T10:10:32.529Z,15.50
2018-01-14T10:13:00.070Z,14.60
2018-01-14T10:15:27.619Z,14.80
2018-01-14T10:17:55.185Z,14.30
2018-01-14T10:20:22.817Z,14.17
2018-01-14T10:22:50.349Z,13.97
2018-01-14T10:25:17.926Z,13.63
2018-01-14T10:27:46.248Z,15.10
2018-01-14T10:30:13.773Z,13.63
2018-01-14T10:32:41.346Z,13.80
2018-01-14T10:35:08.887Z,14.23
2018-01-14T10:37:36.424Z,13.88
2018-01-14T10:40:03.952Z,15.50
2018-01-14T10:42:31.493Z,15.95
2018-01-14T10:44:59.784Z,13.70
2018-01-14T10:47:27.320Z,14.50
2018-01-14T10:49:54.836Z,15.13
2018-01-14T10:52:22.404Z,14.13
2018-01-14T10:54:49.928Z,13.77
2018-01-14T10:57:17.490Z,13.17
2018-01-14T10:59:45.016Z,14.50
2018-01-14T11:02:12.967Z,13.77
2018-01-14T11:04:41.277Z,14.00
2018-01-14T11:07:08.813Z,13.57
2018-01-14T11:09:36.336Z,13.50
2018-01-14T11:12:03.869Z,14.53
2018-01-14T11:14:31.385Z,14.37
2018-01-14T11:16:58.932Z,13.13
2018-01-14T11:19:27.241Z,13.40
2018-01-14T11:21:54.756Z,14.00
2018-01-14T11:24:23.090Z,14.90
2018-01-14T11:26:50.637Z,14.43
2018-01-14T11:29:30.126Z,14.73
2018-01-14T11:31:57.650Z,14.38
2018-01-14T11:34:25.252Z,14.20
2018-01-14T11:36:52.780Z,15.10
2018-01-14T11:39:20.359Z,15.03
2018-01-14T11:41:48.052Z,14.00
2018-01-14T11:44:17.566Z,14.20
2018-01-14T11:46:45.088Z,14.27
2018-01-14T11:49:12.624Z,14.77
2018-01-14T11:51:40.156Z,13.85
2018-01-14T11:54:07.707Z,15.97
2018-01-14T11:56:35.241Z,14.73
2018-01-14T11:59:02.793Z,15.57
2018-01-14T12:01:30.329Z,14.45
2018-01-14T12:03:58.069Z,16.27
2018-01-14T12:06:25.605Z,16.33
2018-01-14T12:08:53.916Z,15.07
2018-01-14T12:11:21.433Z,16.43
2018-01-14T12:13:49.129Z,15.23
2018-01-14T12:16:16.722Z,15.95
2018-01-14T12:18:44.397Z,17.63
2018-01-14T12:21:11.952Z,15.10
2018-01-14T12:23:39.497Z,15.50
2018-01-14T12:26:08.013Z,16.13
2018-01-14T12:28:35.545Z,15.30
2018-01-14T12:31:03.850Z,16.83
2018-01-14T12:36:27.969Z,15.38
2018-01-14T12:38:55.542Z,15.00
2018-01-14T12:41:23.088Z,16.07
2018-01-14T12:43:50.625Z,16.37
2018-01-14T12:46:18.197Z,15.00
2018-01-14T12:48:45.732Z,16.43
2018-01-14T12:51:13.273Z,16.70
2018-01-14T12:53:40.836Z,14.83
2018-01-14T12:56:08.385Z,19.60
2018-01-14T12:58:35.905Z,15.80
2018-01-14T13:01:03.438Z,15.10
2018-01-14T13:03:31.025Z,17.23
2018-01-14T13:05:58.934Z,14.70
2018-01-14T13:08:26.476Z,15.73
2018-01-14T13:10:54.018Z,14.80
2018-01-14T13:13:23.741Z,16.13
2018-01-14T13:15:51.270Z,16.17
2018-01-14T13:18:18.850Z,16.03
2018-01-14T13:20:47.037Z,17.07
2018-01-14T13:23:16.269Z,15.17
2018-01-14T13:25:43.802Z,17.00
2018-01-14T13:28:11.361Z,15.20
2018-01-14T13:30:38.900Z,15.23
2018-01-14T13:33:06.493Z,15.47
2018-01-14T13:35:34.049Z,14.80
2018-01-14T13:38:02.337Z,14.82
2018-01-14T13:40:29.882Z,15.00
2018-01-14T13:42:57.405Z,15.60
2018-01-14T13:45:25.889Z,14.23
2018-01-14T13:47:53.472Z,14.63
2018-01-14T13:50:21.021Z,15.65
2018-01-14T13:52:48.693Z,17.20
2018-01-14T13:55:17.627Z,16.80
2018-01-14T13:57:45.217Z,14.57
2018-01-14T14:00:12.767Z,15.13
2018-01-14T14:02:41.080Z,17.07
2018-01-14T14:05:08.625Z,15.70
2018-01-14T14:07:36.152Z,15.80
2018-01-14T14:10:03.693Z,16.37
2018-01-14T14:12:31.226Z,16.30
2018-01-14T14:14:58.754Z,15.50
2018-01-14T14:17:27.113Z,15.80
2018-01-14T14:19:54.638Z,15.20
2018-01-14T14:22:22.764Z,17.45
2018-01-14T14:24:50.400Z,15.65
2018-01-14T14:27:19.178Z,16.87
2018-01-14T14:29:47.245Z,16.77
2018-01-14T14:32:14.805Z,15.90
2018-01-14T14:34:42.341Z,15.23
2018-01-14T14:37:09.888Z,15.47
2018-01-14T14:39:37.419Z,15.80
2018-01-14T14:42:04.963Z,15.87
2018-01-14T14:44:32.484Z,18.30
2018-01-14T14:47:00.050Z,15.63
2018-01-14T14:49:27.584Z,17.27
2018-01-14T14:51:55.108Z,16.37
2018-01-14T14:54:23.516Z,17.33
2018-01-14T14:56:51.049Z,18.00
2018-01-14T14:59:20.337Z,15.40
2018-01-14T15:01:48.828Z,16.33
2018-01-14T15:04:16.563Z,18.00
2018-01-14T15:06:44.102Z,18.43
2018-01-14T15:09:11.656Z,17.50
2018-01-14T15:11:39.233Z,17.23
2018-01-14T15:14:07.548Z,17.35
2018-01-14T15:16:35.083Z,19.13
2018-01-14T15:19:02.625Z,19.27
2018-01-14T15:21:30.247Z,18.10
2018-01-14T15:23:57.789Z,19.50
2018-01-14T15:26:25.319Z,19.33
2018-01-14T15:28:53.645Z,18.10
2018-01-14T15:31:21.202Z,18.80
2018-01-14T15:33:49.621Z,20.30
2018-01-14T15:36:17.232Z,18.00
2018-01-14T15:38:44.935Z,18.30
2018-01-14T15:41:12.572Z,19.80
2018-01-14T15:43:40.114Z,18.33
2018-01-14T15:46:07.664Z,19.27
2018-01-14T15:48:35.248Z,19.00
2018-01-14T15:51:02.792Z,19.37
2018-01-14T15:53:30.317Z,18.50
2018-01-14T15:55:57.865Z,19.00
2018-01-14T15:58:25.384Z,19.60
2018-01-14T16:00:52.920Z,19.40
2018-01-14T16:03:20.583Z,18.70
2018-01-14T16:05:48.208Z,19.30
2018-01-14T16:08:15.753Z,19.40
2018-01-14T16:10:43.324Z,20.33
2018-01-14T16:13:10.876Z,19.80
2018-01-14T16:15:38.428Z,20.20
2018-01-14T16:18:05.993Z,20.00
2018-01-14T16:20:34.325Z,19.60
2018-01-14T16:23:01.893Z,20.00
2018-01-14T16:25:29.454Z,19.93
2018-01-14T16:27:57.769Z,19.25
2018-01-14T16:30:25.301Z,21.10
2018-01-14T16:32:52.876Z,19.87
2018-01-14T16:35:21.377Z,18.25
2018-01-14T16:37:50.496Z,19.40
2018-01-14T16:40:18.443Z,21.17
2018-01-14T16:42:46.957Z,20.33
2018-01-14T16:45:15.257Z,20.10
2018-01-14T16:47:42.786Z,22.10
2018-01-14T16:50:11.106Z,20.97
2018-01-14T16:52:38.693Z,20.47
2018-01-14T16:55:07.006Z,20.13
2018-01-14T16:57:34.568Z,24.27
2018-01-14T17:00:03.073Z,21.10
2018-01-14T17:02:30.611Z,19.57
2018-01-14T17:04:58.928Z,19.58
2018-01-14T17:07:26.561Z,20.53
2018-01-14T17:09:54.104Z,20.70
2018-01-14T17:12:23.157Z,19.83
2018-01-14T17:14:50.745Z,20.70
2018-01-14T17:17:18.265Z,18.90
2018-01-14T17:19:45.805Z,20.20
2018-01-14T17:22:13.333Z,22.50
2018-01-14T17:24:40.868Z,19.70
2018-01-14T17:27:08.455Z,19.50
2018-01-14T17:29:35.998Z,22.70
2018-01-14T17:32:03.529Z,20.70
2018-01-14T17:34:31.084Z,22.00
2018-01-14T17:36:58.637Z,22.30
2018-01-14T17:39:26.185Z,21.10
2018-01-14T17:41:53.738Z,21.37
2018-01-14T17:44:21.442Z,21.37
2018-01-14T17:46:49.351Z,21.50
2018-01-14T17:49:17.872Z,20.77
2018-01-14T17:51:45.815Z,23.83
2018-01-14T17:54:13.343Z,19.65
2018-01-14T17:56:41.686Z,20.73
2018-01-14T17:59:09.303Z,20.60
2018-01-14T18:01:37.836Z,18.87
2018-01-14T18:04:05.361Z,21.20
2018-01-14T18:06:33.677Z,21.40
2018-01-14T18:09:01.200Z,19.37
2018-01-14T18:11:28.740Z,21.48
2018-01-14T18:13:56.275Z,22.10
2018-01-14T18:16:24.765Z,20.85
2018-01-14T18:18:52.297Z,22.57
2018-01-14T18:21:19.899Z,19.58
2018-01-14T18:23:48.350Z,21.57
2018-01-14T18:26:17.235Z,20.97
2018-01-14T18:28:44.787Z,21.67
2018-01-14T18:31:13.100Z,22.77
2018-01-14T18:33:40.749Z,20.80
2018-01-14T18:36:08.279Z,20.30
2018-01-14T18:38:35.828Z,20.27
2018-01-14T18:41:03.364Z,22.90
2018-01-14T18:43:30.904Z,22.30
2018-01-14T18:46:14.219Z,21.93
2018-01-14T18:48:41.781Z,21.87
2018-01-14T18:51:09.310Z,21.53
2018-01-14T18:53:36.881Z,23.67
2018-01-14T18:56:04.420Z,22.20
2018-01-14T18:58:32.109Z,22.43
2018-01-14T19:01:00.449Z,22.70
2018-01-14T19:03:27.965Z,21.10
2018-01-14T19:05:55.493Z,23.17
2018-01-14T19:08:23.063Z,22.37
2018-01-14T19:10:50.596Z,23.17
2018-01-14T19:13:18.455Z,22.00
2018-01-14T19:15:46.225Z,22.43
2018-01-14T19:18:14.557Z,23.03
2018-01-14T19:20:42.164Z,21.73
2018-01-14T19:23:09.674Z,21.30
2018-01-14T19:25:37.302Z,20.83
2018-01-14T19:28:04.843Z,23.60
2018-01-14T19:30:32.386Z,23.53
2018-01-14T19:32:59.924Z,20.90
2018-01-14T19:35:27.484Z,21.70
2018-01-14T19:37:55.164Z,22.80
2018-01-14T19:40:24.224Z,21.40
2018-01-14T19:42:51.797Z,21.70
2018-01-14T19:45:20.258Z,20.63
2018-01-14T19:47:47.918Z,20.53
2018-01-14T19:50:15.500Z,22.13
2018-01-14T19:52:43.034Z,21.77
2018-01-14T19:55:10.565Z,21.43
2018-01-14T19:57:38.116Z,22.77
2018-01-14T20:00:05.652Z,20.37
2018-01-14T20:02:33.200Z,19.67
2018-01-14T20:05:00.736Z,24.13
2018-01-14T20:07:29.057Z,21.50
2018-01-14T20:09:56.585Z,21.73
2018-01-14T20:12:24.148Z,19.97
2018-01-14T20:14:53.185Z,22.03
2018-01-14T20:17:21.014Z,23.10
2018-01-14T20:19:48.576Z,21.50
2018-01-14T20:22:16.138Z,21.20
2018-01-14T20:24:43.705Z,20.67
2018-01-14T20:27:11.248Z,20.43
2018-01-14T20:29:38.777Z,21.50
2018-01-14T20:32:06.321Z,20.63
2018-01-14T20:34:33.864Z,21.10
2018-01-14T20:37:02.385Z,20.63
2018-01-14T20:39:34.585Z,20.42
2018-01-14T20:42:02.439Z,21.02
2018-01-14T20:44:30.797Z,20.55
2018-01-14T20:46:58.320Z,21.30
2018-01-14T20:49:25.877Z,21.30
2018-01-14T20:51:53.406Z,24.20
2018-01-14T20:54:21.090Z,22.27
2018-01-14T20:56:49.459Z,22.10
2018-01-14T20:59:17.017Z,22.00
2018-01-14T21:01:44.545Z,22.33
2018-01-14T21:04:12.101Z,21.67
2018-01-14T21:06:39.624Z,23.17
2018-01-14T21:09:07.156Z,27.00
2018-01-14T21:11:34.728Z,20.77
2018-01-14T21:14:02.259Z,21.83
2018-01-14T21:16:29.892Z,20.93
2018-01-14T21:18:57.429Z,21.43
2018-01-14T21:21:25.135Z,20.17
2018-01-14T21:23:53.465Z,21.50
2018-01-14T21:26:21.045Z,23.13
2018-01-14T21:28:49.415Z,20.97
2018-01-14T21:31:17.736Z,21.57
2018-01-14T21:33:45.282Z,20.75
2018-01-14T21:36:12.854Z,21.67
2018-01-14T21:38:42.114Z,21.98
2018-01-14T21:41:09.865Z,21.40
2018-01-14T21:43:37.565Z,21.53
2018-01-14T21:46:05.122Z,20.80
2018-01-14T21:48:32.784Z,20.47
2018-01-14T21:51:00.331Z,20.20
2018-01-14T21:53:28.860Z,21.00
2018-01-14T21:55:57.173Z,20.30
2018-01-14T21:58:24.705Z,21.13
2018-01-14T22:00:52.333Z,19.65
2018-01-14T22:03:19.895Z,20.50
2018-01-14T22:05:47.646Z,22.33
2018-01-14T22:08:15.194Z,21.67
2018-01-14T22:10:42.747Z,21.83
2018-01-14T22:13:10.294Z,20.83
2018-01-14T22:15:37.824Z,22.70
2018-01-14T22:18:05.436Z,21.87
2018-01-14T22:20:33.722Z,21.13
2018-01-14T22:23:01.257Z,23.50
2018-01-14T22:25:28.805Z,21.10
2018-01-14T22:27:56.354Z,22.70
2018-01-14T22:30:23.916Z,22.27
2018-01-14T22:32:51.469Z,20.87
2018-01-14T22:35:19.079Z,23.23
2018-01-14T22:37:46.664Z,23.67
2018-01-14T22:40:14.209Z,25.67
2018-01-14T22:42:41.736Z,22.67
2018-01-14T22:45:09.357Z,21.10
2018-01-14T22:47:36.880Z,23.50
2018-01-14T22:50:05.200Z,21.50
2018-01-14T22:52:33.680Z,22.80
2018-01-14T22:55:01.255Z,22.57
2018-01-14T22:57:29.544Z,21.95
2018-01-14T22:59:57.108Z,22.30
2018-01-14T23:02:24.638Z,22.67
2018-01-14T23:04:52.176Z,23.80
2018-01-14T23:07:19.724Z,23.63
2018-01-14T23:09:47.408Z,23.08
2018-01-14T23:12:15.824Z,22.73
2018-01-14T23:14:50.412Z,23.48
2018-01-14T23:17:18.029Z,22.63
2018-01-14T23:19:47.161Z,22.53
2018-01-14T23:22:14.705Z,22.70
2018-01-14T23:24:42.248Z,22.97
2018-01-14T23:27:09.818Z,27.08
2018-01-14T23:29:37.352Z,23.90
2018-01-14T23:32:04.872Z,23.87
2018-01-14T23:34:32.439Z,23.90
2018-01-14T23:36:59.998Z,24.95
2018-01-14T23:39:27.527Z,23.77
2018-01-14T23:41:55.068Z,22.42
2018-01-14T23:44:22.701Z,22.43
2018-01-14T23:46:50.313Z,25.42
2018-01-14T23:49:18.388Z,26.90
2018-01-14T23:51:45.974Z,23.53
2018-01-14T23:54:13.500Z,23.00
2018-01-14T23:56:41.078Z,23.50
2018-01-14T23:59:08.660Z,23.17
